Time;durP1;ratioP1;P1;durP2;ratioP2;P2;SDS_P1;SDS_P2;PMS_P1;PMS_P2;Temp;Humidity;BMP_temperature;BMP_pressure;BME280_temperature;BME280_humidity;BME280_pressure;Samples;Min_cycle;Max_cycle;Signal;HPM_P1;HPM_P2
2022/03/29 00:00:25;;;;;;;2.67;2.10;;;12.00;99.90;;;;;;5013860;28;20176;-67
2022/03/29 00:02:51;;;;;;;3.13;2.93;;;11.90;99.90;;;;;;5013747;28;20248;-69
2022/03/29 00:05:16;;;;;;;0.97;0.83;;;11.90;99.90;;;;;;5013180;28;20200;-68
2022/03/29 00:07:42;;;;;;;1.67;1.40;;;11.90;99.90;;;;;;5013718;28;20577;-68
2022/03/29 00:10:08;;;;;;;6.23;2.27;;;11.90;99.90;;;;;;5013852;28;20251;-67
2022/03/29 00:12:35;;;;;;;2.60;2.40;;;11.80;99.90;;;;;;5013805;28;20172;-68
2022/03/29 00:15:02;;;;;;;1.57;1.47;;;11.80;99.90;;;;;;5013417;28;21000;-68
2022/03/29 00:17:28;;;;;;;0.90;0.80;;;11.80;99.90;;;;;;5013349;28;20403;-67
2022/03/29 00:19:53;;;;;;;1.17;1.07;;;11.80;99.90;;;;;;5012575;28;21013;-68
2022/03/29 00:22:19;;;;;;;1.30;1.20;;;11.80;99.90;;;;;;5013408;28;20251;-68
2022/03/29 00:24:44;;;;;;;1.93;1.60;;;11.80;99.90;;;;;;5013217;28;20188;-68
2022/03/29 00:27:10;;;;;;;1.93;1.63;;;11.70;99.90;;;;;;5013188;28;20179;-67
2022/03/29 00:29:37;;;;;;;2.03;1.83;;;11.70;99.90;;;;;;5013353;28;20194;-68
2022/03/29 00:32:03;;;;;;;2.30;1.23;;;11.70;99.90;;;;;;5013359;28;20164;-68
2022/03/29 00:34:28;;;;;;;1.40;1.30;;;11.70;99.90;;;;;;5013096;28;20427;-68
2022/03/29 00:36:54;;;;;;;1.47;0.90;;;11.60;99.90;;;;;;5013079;28;20426;-68
2022/03/29 00:39:19;;;;;;;1.87;1.67;;;11.70;99.90;;;;;;5013201;28;20199;-69
2022/03/29 00:41:45;;;;;;;2.30;2.00;;;11.60;99.90;;;;;;5013346;28;20165;-68
2022/03/29 00:44:11;;;;;;;1.57;1.47;;;11.60;99.90;;;;;;5012967;28;20168;-68
2022/03/29 00:46:37;;;;;;;8.93;1.87;;;11.60;99.90;;;;;;5012834;28;20199;-69
2022/03/29 00:49:03;;;;;;;1.60;1.40;;;11.50;99.90;;;;;;5012952;28;20222;-68
2022/03/29 00:51:28;;;;;;;3.63;1.23;;;11.50;99.90;;;;;;5012916;28;20779;-68
2022/03/29 00:53:54;;;;;;;2.17;1.37;;;11.50;99.90;;;;;;5012812;28;20677;-68
2022/03/29 00:56:20;;;;;;;1.47;1.37;;;11.50;99.90;;;;;;5011208;28;20192;-68
2022/03/29 00:58:46;;;;;;;1.13;1.03;;;11.50;99.90;;;;;;5012770;28;20192;-68
2022/03/29 01:01:13;;;;;;;1.30;1.20;;;11.40;99.90;;;;;;5012780;28;20884;-68
2022/03/29 01:03:41;;;;;;;1.67;1.57;;;11.40;99.90;;;;;;5012667;28;20403;-67
2022/03/29 01:06:08;;;;;;;3.97;2.53;;;11.40;99.90;;;;;;5012305;28;20431;-69
2022/03/29 01:08:35;;;;;;;3.13;2.80;;;11.40;99.90;;;;;;5012640;28;20411;-68
2022/03/29 01:11:08;;;;;;;1.67;0.97;;;11.40;99.90;;;;;;5012558;28;20407;-69
2022/03/29 01:13:33;;;;;;;1.83;0.77;;;11.30;99.90;;;;;;5012700;28;20403;-68
2022/03/29 01:17:38;;;;;;;1.20;0.80;;;11.30;99.90;;;;;;5012231;28;20427;-68
2022/03/29 01:18:48;;;;;;;0.90;0.80;;;11.30;99.90;;;;;;5011904;28;20280;-68
2022/03/29 01:21:19;;;;;;;1.77;1.23;;;11.30;99.90;;;;;;5012291;28;20399;-68
2022/03/29 01:23:45;;;;;;;1.10;0.90;;;11.30;99.90;;;;;;5012595;28;20169;-68
2022/03/29 01:26:12;;;;;;;0.80;0.70;;;11.30;99.90;;;;;;5012094;28;20434;-69
2022/03/29 01:28:38;;;;;;;8.73;1.17;;;11.30;99.90;;;;;;5012392;28;20417;-68
2022/03/29 01:31:04;;;;;;;4.37;1.37;;;11.30;99.90;;;;;;5012340;28;20403;-69
2022/03/29 01:33:30;;;;;;;2.83;2.30;;;11.30;99.90;;;;;;5012299;28;20768;-68
2022/03/29 01:35:57;;;;;;;1.27;1.17;;;11.30;99.90;;;;;;5011863;28;20424;-68
2022/03/29 01:38:22;;;;;;;3.23;2.93;;;11.30;99.90;;;;;;5012249;28;21067;-69
2022/03/29 01:40:48;;;;;;;1.63;1.27;;;11.30;99.90;;;;;;5012303;28;20485;-69
2022/03/29 01:43:14;;;;;;;1.20;1.10;;;11.30;99.90;;;;;;5012202;28;20182;-68
2022/03/29 01:45:39;;;;;;;2.83;2.67;;;11.30;99.90;;;;;;5010630;28;20196;-68
2022/03/29 01:48:05;;;;;;;1.47;1.17;;;11.30;99.90;;;;;;5012219;28;20411;-68
2022/03/29 01:50:31;;;;;;;1.00;0.90;;;11.30;99.90;;;;;;5012148;28;20539;-69
2022/03/29 01:52:56;;;;;;;3.83;0.97;;;11.30;99.90;;;;;;5012073;28;20168;-68
2022/03/29 01:55:22;;;;;;;1.50;1.00;;;11.30;99.90;;;;;;5011651;28;20228;-68
2022/03/29 01:57:49;;;;;;;1.73;1.63;;;11.40;99.90;;;;;;5012057;28;20168;-68
2022/03/29 02:00:31;;;;;;;2.43;2.23;;;11.40;99.90;;;;;;5011953;28;20447;-68
2022/03/29 02:02:58;;;;;;;2.10;1.30;;;11.40;99.90;;;;;;5012040;28;20421;-68
2022/03/29 02:05:24;;;;;;;1.00;0.90;;;11.40;99.90;;;;;;5011655;28;20427;-68
2022/03/29 02:07:50;;;;;;;1.23;1.13;;;11.40;99.90;;;;;;5010733;28;20970;-69
2022/03/29 02:10:20;;;;;;;2.23;1.73;;;11.40;99.90;;;;;;5011960;28;20173;-68
2022/03/29 02:12:47;;;;;;;8.10;2.73;;;11.40;99.90;;;;;;5012047;28;20426;-68
2022/03/29 02:15:13;;;;;;;1.40;1.30;;;11.40;99.90;;;;;;5011519;28;20797;-68
2022/03/29 02:17:41;;;;;;;1.23;1.00;;;11.40;99.90;;;;;;5011959;28;20491;-68
2022/03/29 02:20:07;;;;;;;2.00;0.90;;;11.40;99.90;;;;;;5011858;28;20568;-68
2022/03/29 02:22:33;;;;;;;1.50;1.27;;;11.40;99.90;;;;;;5011698;28;20445;-68
2022/03/29 02:24:59;;;;;;;1.80;1.60;;;11.40;99.90;;;;;;5011643;28;20959;-69
2022/03/29 02:27:24;;;;;;;1.20;1.10;;;11.40;99.90;;;;;;5011858;28;20469;-68
2022/03/29 02:29:50;;;;;;;1.50;1.07;;;11.40;99.90;;;;;;5011838;28;20194;-68
2022/03/29 02:32:15;;;;;;;1.73;1.23;;;11.40;99.90;;;;;;5011655;28;20176;-68
2022/03/29 02:34:41;;;;;;;1.33;1.07;;;11.40;99.90;;;;;;5011603;28;20207;-68
2022/03/29 02:37:07;;;;;;;2.00;1.57;;;11.40;99.90;;;;;;5011595;28;20176;-68
2022/03/29 02:39:32;;;;;;;3.17;1.37;;;11.40;99.90;;;;;;5011554;28;20590;-68
2022/03/29 02:41:58;;;;;;;1.30;0.90;;;11.40;99.90;;;;;;5011718;28;20203;-68
2022/03/29 02:44:23;;;;;;;2.00;1.60;;;11.40;99.90;;;;;;5015031;28;20257;-68
2022/03/29 02:46:49;;;;;;;2.30;2.10;;;11.30;99.90;;;;;;5015011;28;20171;-68
2022/03/29 02:49:15;;;;;;;2.03;0.90;;;11.30;99.90;;;;;;5015168;28;20626;-68
2022/03/29 02:51:40;;;;;;;2.50;0.90;;;11.30;99.90;;;;;;5015186;28;20414;-68
2022/03/29 02:54:06;;;;;;;1.63;0.87;;;11.30;99.90;;;;;;5014977;28;20184;-68
2022/03/29 02:56:31;;;;;;;1.30;1.10;;;11.30;99.90;;;;;;5014781;28;20198;-68
2022/03/29 02:58:57;;;;;;;3.40;2.07;;;11.30;99.90;;;;;;5014918;28;20204;-69
2022/03/29 03:01:24;;;;;;;1.87;1.77;;;11.20;99.90;;;;;;5015067;28;20222;-68
2022/03/29 03:03:49;;;;;;;1.20;1.10;;;11.30;99.90;;;;;;5015037;28;20486;-69
2022/03/29 03:06:15;;;;;;;1.43;1.13;;;11.20;99.90;;;;;;5014435;28;20187;-68
2022/03/29 03:08:40;;;;;;;2.50;1.30;;;11.20;99.90;;;;;;5014790;28;20207;-68
2022/03/29 03:11:06;;;;;;;4.23;1.67;;;11.20;99.90;;;;;;5014759;28;20222;-68
2022/03/29 03:13:33;;;;;;;3.33;0.87;;;11.20;99.90;;;;;;5014766;28;20171;-68
2022/03/29 03:15:58;;;;;;;4.60;1.10;;;11.20;99.90;;;;;;5014569;28;20180;-68
2022/03/29 03:18:24;;;;;;;2.03;1.83;;;11.10;99.90;;;;;;5014570;28;20447;-69
2022/03/29 03:20:49;;;;;;;13.93;1.33;;;11.10;99.90;;;;;;5014308;28;20191;-68
2022/03/29 03:23:15;;;;;;;1.00;0.70;;;11.10;99.90;;;;;;5014355;28;20229;-68
2022/03/29 03:25:40;;;;;;;1.80;1.13;;;11.10;99.90;;;;;;5014115;28;20282;-69
2022/03/29 03:28:06;;;;;;;1.97;1.13;;;11.10;99.90;;;;;;5014509;28;20161;-69
2022/03/29 03:30:33;;;;;;;1.10;0.87;;;11.10;99.90;;;;;;5014365;28;20171;-68
2022/03/29 03:32:58;;;;;;;4.00;3.70;;;11.10;99.90;;;;;;5013605;28;20683;-69
2022/03/29 03:35:24;;;;;;;2.87;2.67;;;11.10;99.90;;;;;;5013832;28;20427;-69
2022/03/29 03:37:50;;;;;;;1.33;1.23;;;11.00;99.90;;;;;;5014320;28;20171;-68
2022/03/29 03:40:16;;;;;;;2.73;1.03;;;11.00;99.90;;;;;;5014185;28;20192;-68
2022/03/29 03:42:41;;;;;;;2.33;0.90;;;11.00;99.90;;;;;;5014256;28;20475;-68
2022/03/29 03:45:08;;;;;;;3.47;2.07;;;11.00;99.90;;;;;;5013975;28;20195;-66
2022/03/29 03:47:34;;;;;;;1.30;1.20;;;11.00;99.90;;;;;;5014120;28;20568;-68
2022/03/29 03:49:59;;;;;;;1.17;0.80;;;11.00;99.90;;;;;;5013913;28;20409;-68
2022/03/29 03:52:25;;;;;;;2.30;1.50;;;11.00;99.90;;;;;;5013965;28;20687;-68
2022/03/29 03:54:51;;;;;;;2.50;1.50;;;11.00;99.90;;;;;;5012712;28;20292;-68
2022/03/29 03:57:18;;;;;;;3.17;2.87;;;10.90;99.90;;;;;;5013738;28;20705;-69
2022/03/29 03:59:45;;;;;;;3.50;2.30;;;10.90;99.90;;;;;;5013940;28;20234;-69
2022/03/29 04:02:11;;;;;;;1.27;1.17;;;10.90;99.90;;;;;;5014111;28;20832;-68
2022/03/29 04:04:36;;;;;;;0.80;0.60;;;10.90;99.90;;;;;;5013825;28;20450;-69
2022/03/29 04:07:02;;;;;;;1.10;0.70;;;10.90;99.90;;;;;;5013553;28;20235;-68
2022/03/29 04:09:28;;;;;;;1.53;1.43;;;10.80;99.90;;;;;;5013742;28;20175;-68
2022/03/29 04:11:54;;;;;;;3.83;1.50;;;10.80;99.90;;;;;;5013691;28;20677;-67
2022/03/29 04:14:19;;;;;;;1.73;1.63;;;10.80;99.90;;;;;;5013608;28;20467;-68
2022/03/29 04:16:45;;;;;;;1.57;1.47;;;10.80;99.90;;;;;;5013340;28;20172;-69
2022/03/29 04:19:11;;;;;;;0.90;0.77;;;10.80;99.90;;;;;;5013366;28;20677;-68
2022/03/29 04:21:36;;;;;;;4.60;1.20;;;10.70;99.90;;;;;;5013284;28;20395;-68
2022/03/29 04:24:02;;;;;;;1.43;1.20;;;10.70;99.90;;;;;;5013364;28;20172;-68
2022/03/29 04:26:29;;;;;;;0.97;0.87;;;10.70;99.90;;;;;;5013080;28;20176;-69
2022/03/29 04:28:55;;;;;;;6.30;3.43;;;10.70;99.90;;;;;;5013373;28;20259;-68
2022/03/29 04:31:20;;;;;;;0.90;0.80;;;10.70;99.90;;;;;;5013338;28;20458;-68
2022/03/29 04:33:46;;;;;;;3.03;1.43;;;10.70;99.90;;;;;;5013287;28;20230;-68
2022/03/29 04:36:11;;;;;;;1.50;1.00;;;10.70;99.90;;;;;;5012848;28;20235;-68
2022/03/29 04:38:37;;;;;;;1.40;1.23;;;10.70;99.90;;;;;;5013140;28;20279;-68
2022/03/29 04:41:04;;;;;;;1.10;0.90;;;10.60;99.90;;;;;;5013279;28;20246;-68
2022/03/29 04:43:30;;;;;;;1.00;0.80;;;10.60;99.90;;;;;;5013297;28;20510;-69
2022/03/29 04:45:55;;;;;;;0.93;0.83;;;10.60;99.90;;;;;;5012935;28;20423;-67
2022/03/29 04:48:21;;;;;;;2.07;1.87;;;10.60;99.90;;;;;;5013065;28;20171;-68
2022/03/29 04:50:46;;;;;;;3.00;1.80;;;10.60;99.90;;;;;;5012897;28;20175;-68
2022/03/29 04:53:13;;;;;;;1.47;1.17;;;10.50;99.90;;;;;;5012830;28;20168;-69
2022/03/29 04:55:38;;;;;;;2.50;2.40;;;10.50;99.90;;;;;;5012620;28;20204;-68
2022/03/29 04:58:04;;;;;;;3.27;1.37;;;10.50;99.90;;;;;;5012891;28;20478;-68
2022/03/29 05:00:30;;;;;;;1.00;0.90;;;10.50;99.90;;;;;;5012769;28;20175;-67
2022/03/29 05:02:55;;;;;;;1.97;1.23;;;10.50;99.90;;;;;;5012923;28;20543;-68
2022/03/29 05:05:21;;;;;;;11.60;1.83;;;10.50;99.90;;;;;;5012207;28;20192;-69
2022/03/29 05:07:46;;;;;;;1.00;0.80;;;10.50;99.90;;;;;;5012644;28;20211;-69
2022/03/29 05:10:14;;;;;;;1.10;1.00;;;10.50;99.90;;;;;;5012685;28;20160;-69
2022/03/29 05:12:39;;;;;;;1.83;1.73;;;10.50;99.90;;;;;;5012618;28;20239;-68
2022/03/29 05:15:06;;;;;;;1.00;0.70;;;10.50;99.90;;;;;;5011179;28;20450;-68
2022/03/29 05:17:33;;;;;;;1.27;1.20;;;10.50;99.90;;;;;;5012300;28;20175;-68
2022/03/29 05:19:59;;;;;;;1.10;1.00;;;10.50;99.90;;;;;;5012454;28;20455;-68
2022/03/29 05:22:24;;;;;;;1.13;1.03;;;10.60;99.90;;;;;;5012538;28;20405;-68
2022/03/29 05:24:50;;;;;;;1.13;1.03;;;10.60;99.90;;;;;;5012475;28;20192;-67
2022/03/29 05:27:15;;;;;;;2.20;1.80;;;10.60;99.90;;;;;;5012423;28;20172;-68
2022/03/29 05:29:41;;;;;;;0.80;0.60;;;10.60;99.90;;;;;;5012685;28;20179;-68
2022/03/29 05:32:07;;;;;;;1.13;1.03;;;10.60;99.90;;;;;;5012450;28;20169;-68
2022/03/29 05:34:32;;;;;;;5.03;2.60;;;10.60;99.90;;;;;;5012164;28;20430;-68
2022/03/29 05:36:58;;;;;;;1.40;1.27;;;10.60;99.90;;;;;;5012086;28;20180;-69
2022/03/29 05:39:23;;;;;;;1.83;1.17;;;10.60;99.90;;;;;;5012247;28;20199;-69
2022/03/29 05:41:49;;;;;;;4.13;1.17;;;10.60;99.90;;;;;;5012289;28;20160;-69
2022/03/29 05:44:14;;;;;;;0.80;0.80;;;10.60;99.90;;;;;;5012114;28;20168;-68
2022/03/29 05:49:26;;;;;;;1.90;1.80;;;10.60;99.90;;;;;;5012562;28;20661;-69
2022/03/29 05:51:52;;;;;;;1.10;0.97;;;10.60;99.90;;;;;;5012305;28;20411;-69
2022/03/29 05:54:18;;;;;;;1.20;1.10;;;10.60;99.90;;;;;;5011995;28;20498;-68
2022/03/29 05:56:44;;;;;;;3.30;1.33;;;10.60;99.90;;;;;;5012060;28;20502;-69
2022/03/29 05:59:10;;;;;;;2.17;1.63;;;10.60;99.90;;;;;;5012262;28;20439;-69
2022/03/29 06:01:37;;;;;;;4.70;2.30;;;10.70;99.90;;;;;;5012240;28;20511;-68
2022/03/29 06:04:06;;;;;;;1.60;1.00;;;10.70;99.90;;;;;;5012116;28;20415;-68
2022/03/29 06:06:37;;;;;;;6.50;1.67;;;10.70;99.90;;;;;;5011821;28;20407;-68
2022/03/29 06:09:03;;;;;;;1.33;1.23;;;10.80;99.90;;;;;;5012226;28;20494;-69
2022/03/29 06:11:29;;;;;;;1.10;1.00;;;10.80;99.90;;;;;;5010853;28;20956;-69
2022/03/29 06:13:54;;;;;;;3.90;1.60;;;10.90;99.90;;;;;;5012006;28;20406;-68
2022/03/29 06:16:20;;;;;;;1.43;1.33;;;10.90;99.90;;;;;;5011626;28;20517;-69
2022/03/29 06:18:46;;;;;;;2.93;2.10;;;11.00;99.90;;;;;;5014628;28;20596;-68
2022/03/29 06:21:12;;;;;;;1.30;1.17;;;11.10;99.90;;;;;;5015907;28;20399;-69
2022/03/29 06:23:38;;;;;;;3.93;1.80;;;11.10;99.90;;;;;;5015626;28;20247;-70
2022/03/29 06:26:04;;;;;;;1.10;1.00;;;11.20;99.90;;;;;;5015359;28;20557;-69
2022/03/29 06:28:30;;;;;;;2.40;2.20;;;11.20;99.90;;;;;;5015741;28;20413;-70
2022/03/29 06:30:56;;;;;;;4.00;1.40;;;11.30;99.90;;;;;;5015604;28;20429;-70
2022/03/29 06:33:22;;;;;;;2.13;1.27;;;11.40;99.90;;;;;;5015498;28;20164;-70
2022/03/29 06:35:49;;;;;;;2.00;1.80;;;11.50;99.90;;;;;;5015294;28;20492;-70
2022/03/29 06:38:20;;;;;;;3.03;2.00;;;11.60;99.90;;;;;;5015481;28;20175;-70
2022/03/29 06:40:47;;;;;;;0.90;0.80;;;11.70;99.90;;;;;;5015528;28;20404;-69
2022/03/29 06:43:13;;;;;;;2.83;1.53;;;11.70;99.90;;;;;;5015456;28;20403;-69
2022/03/29 06:45:39;;;;;;;19.63;2.80;;;11.80;99.90;;;;;;5014966;28;20936;-70
2022/03/29 06:48:05;;;;;;;0.97;0.87;;;11.90;99.90;;;;;;5015279;28;20434;-70
2022/03/29 06:50:32;;;;;;;2.40;1.50;;;12.00;99.90;;;;;;5015256;28;20986;-69
2022/03/29 06:52:59;;;;;;;5.57;4.10;;;12.10;99.90;;;;;;5015091;28;20415;-69
2022/03/29 06:55:25;;;;;;;3.20;1.30;;;12.20;99.90;;;;;;5014723;28;20869;-69
2022/03/29 06:57:51;;;;;;;2.43;2.33;;;12.30;99.90;;;;;;5014812;28;20469;-70
2022/03/29 07:00:17;;;;;;;2.83;2.43;;;12.40;99.90;;;;;;5014909;28;20458;-70
2022/03/29 07:02:43;;;;;;;2.43;2.23;;;12.50;99.90;;;;;;5015039;28;20203;-69
2022/03/29 07:05:09;;;;;;;4.97;4.67;;;12.60;99.90;;;;;;5014802;28;20427;-69
2022/03/29 07:07:35;;;;;;;1.90;1.13;;;12.70;99.90;;;;;;5014624;28;20473;-69
2022/03/29 07:12:52;;;;;;;3.90;1.70;;;12.80;99.90;;;;;;5014785;28;20294;-69
2022/03/29 07:15:18;;;;;;;2.23;1.20;;;12.90;99.90;;;;;;5014557;28;20518;-69
2022/03/29 07:17:44;;;;;;;2.90;1.77;;;13.00;99.90;;;;;;5014093;28;20494;-69
2022/03/29 07:20:11;;;;;;;19.40;2.40;;;13.10;99.90;;;;;;5014273;28;20455;-69
2022/03/29 07:22:37;;;;;;;4.93;2.20;;;13.10;99.90;;;;;;5014590;28;20407;-69
2022/03/29 07:25:03;;;;;;;3.07;1.73;;;13.30;99.90;;;;;;5013070;28;20446;-69
2022/03/29 07:27:30;;;;;;;3.27;1.60;;;13.40;99.90;;;;;;5014195;28;20192;-69
2022/03/29 07:29:57;;;;;;;3.80;3.50;;;13.50;99.90;;;;;;5014318;28;20407;-70
2022/03/29 07:32:22;;;;;;;3.40;3.10;;;13.70;99.90;;;;;;5014382;28;20493;-70
2022/03/29 07:34:48;;;;;;;4.80;2.20;;;13.90;99.90;;;;;;5014603;28;20465;-69
2022/03/29 07:37:13;;;;;;;4.27;2.40;;;14.10;99.90;;;;;;5014097;28;20176;-69
2022/03/29 07:39:40;;;;;;;2.67;2.47;;;14.30;99.90;;;;;;5012868;28;20287;-69
2022/03/29 07:42:06;;;;;;;8.43;4.70;;;14.60;99.90;;;;;;5014302;28;20629;-70
2022/03/29 07:44:32;;;;;;;2.03;1.83;;;14.80;99.90;;;;;;5014537;28;20561;-70
2022/03/29 07:46:57;;;;;;;2.57;2.33;;;15.00;99.90;;;;;;5013860;28;20400;-70
2022/03/29 07:49:23;;;;;;;3.37;1.80;;;15.20;99.90;;;;;;5014328;28;20653;-70
2022/03/29 07:51:49;;;;;;;4.93;3.40;;;15.40;99.90;;;;;;5014057;28;20584;-69
2022/03/29 07:54:15;;;;;;;3.50;3.03;;;15.60;99.90;;;;;;5013778;28;20427;-70
2022/03/29 07:56:40;;;;;;;2.47;2.27;;;15.90;99.90;;;;;;5014093;28;20168;-70
2022/03/29 07:59:06;;;;;;;3.40;2.20;;;16.20;99.90;;;;;;5013859;28;20265;-69
2022/03/29 08:01:31;;;;;;;6.40;2.33;;;16.50;99.90;;;;;;5013966;28;20218;-69
2022/03/29 08:03:57;;;;;;;3.57;2.03;;;16.80;99.90;;;;;;5013746;28;20206;-70
2022/03/29 08:06:22;;;;;;;4.13;2.40;;;17.00;99.90;;;;;;5013429;28;20271;-69
2022/03/29 08:08:48;;;;;;;6.50;4.30;;;17.40;99.90;;;;;;5013895;28;20176;-70
2022/03/29 08:11:14;;;;;;;3.23;2.73;;;17.70;99.90;;;;;;5014125;28;20172;-71
2022/03/29 08:13:39;;;;;;;4.87;3.07;;;18.00;99.90;;;;;;5013971;28;20422;-71
2022/03/29 08:16:05;;;;;;;13.20;4.57;;;18.10;99.90;;;;;;5013191;28;20204;-70
2022/03/29 08:18:31;;;;;;;4.03;3.63;;;18.20;99.90;;;;;;5013466;28;20585;-69
2022/03/29 08:20:58;;;;;;;2.30;2.20;;;18.20;99.90;;;;;;5013461;28;20411;-70
2022/03/29 08:23:25;;;;;;;3.33;3.03;;;18.10;99.90;;;;;;5013323;28;20591;-70
2022/03/29 08:25:50;;;;;;;3.03;2.40;;;18.00;99.90;;;;;;5013375;28;20646;-70
2022/03/29 08:28:16;;;;;;;5.63;3.60;;;18.00;99.90;;;;;;5013344;28;20541;-70
2022/03/29 08:30:43;;;;;;;10.40;2.27;;;18.00;99.90;;;;;;5013270;28;20686;-70
2022/03/29 08:33:09;;;;;;;6.00;2.50;;;18.10;99.90;;;;;;5013213;28;20413;-70
2022/03/29 08:35:37;;;;;;;4.37;3.43;;;18.30;99.90;;;;;;5012948;28;20778;-70
2022/03/29 08:38:03;;;;;;;6.70;3.13;;;18.60;99.90;;;;;;5013062;28;20439;-70
2022/03/29 08:40:29;;;;;;;3.10;2.60;;;18.80;99.90;;;;;;5012488;28;20469;-70
2022/03/29 08:42:58;;;;;;;5.50;2.87;;;19.20;99.90;;;;;;5013083;28;20498;-70
2022/03/29 08:45:31;;;;;;;3.77;3.47;;;19.60;99.90;;;;;;5013248;28;20185;-68
2022/03/29 08:47:59;;;;;;;3.90;3.03;;;20.10;99.90;;;;;;5013131;28;20783;-69
2022/03/29 08:50:28;;;;;;;6.10;2.70;;;20.40;99.90;;;;;;5012844;28;20419;-68
2022/03/29 08:52:54;;;;;;;5.17;3.53;;;20.70;97.60;;;;;;5012954;28;20432;-69
2022/03/29 08:55:21;;;;;;;3.93;3.03;;;20.90;95.40;;;;;;5012676;28;20461;-70
2022/03/29 08:57:54;;;;;;;9.27;4.00;;;21.10;94.20;;;;;;5012632;28;20469;-69
2022/03/29 09:00:23;;;;;;;6.83;4.30;;;21.10;93.00;;;;;;5013061;28;20529;-69
2022/03/29 09:02:49;;;;;;;3.90;2.47;;;21.10;91.40;;;;;;5012694;28;20758;-70
2022/03/29 09:05:20;;;;;;;5.93;3.20;;;21.00;89.80;;;;;;5012668;28;20427;-69
2022/03/29 09:07:57;;;;;;;3.07;2.80;;;20.90;88.20;;;;;;5012677;28;20609;-68
2022/03/29 09:10:46;;;;;;;9.83;2.23;;;20.80;88.40;;;;;;5012849;28;20410;-69
2022/03/29 09:13:17;;;;;;;4.53;4.13;;;20.70;90.00;;;;;;5011506;28;20481;-68
2022/03/29 09:15:43;;;;;;;3.43;2.40;;;20.70;90.20;;;;;;5012565;28;20434;-68
2022/03/29 09:18:10;;;;;;;6.53;4.10;;;20.80;90.50;;;;;;5012390;28;20776;-69
2022/03/29 09:20:36;;;;;;;3.70;2.83;;;21.00;89.80;;;;;;5012376;28;20175;-69
2022/03/29 09:23:03;;;;;;;9.57;4.10;;;21.20;90.00;;;;;;5012416;28;20400;-69
2022/03/29 09:25:37;;;;;;;6.33;3.47;;;21.60;89.80;;;;;;5012261;28;20438;-69
2022/03/29 09:28:05;;;;;;;27.43;5.03;;;22.20;87.90;;;;;;5012104;28;20434;-69
2022/03/29 09:30:38;;;;;;;5.80;3.53;;;23.10;86.70;;;;;;5012311;28;20419;-69
2022/03/29 09:33:16;;;;;;;6.10;3.43;;;24.00;82.50;;;;;;5012295;28;20447;-69
2022/03/29 09:35:52;;;;;;;7.13;3.07;;;24.80;73.20;;;;;;5012047;28;20505;-69
2022/03/29 09:38:27;;;;;;;4.93;3.10;;;25.30;68.50;;;;;;5012107;28;20399;-70
2022/03/29 09:40:55;;;;;;;10.90;3.43;;;25.70;66.50;;;;;;5012245;28;20407;-69
2022/03/29 09:43:22;;;;;;;5.07;4.57;;;25.90;63.50;;;;;;5012118;28;20402;-69
2022/03/29 09:45:55;;;;;;;4.67;3.50;;;26.10;59.20;;;;;;5011997;28;20784;-70
2022/03/29 09:48:37;;;;;;;6.00;5.20;;;26.30;57.30;;;;;;5012232;28;20400;-69
2022/03/29 09:51:14;;;;;;;4.77;2.70;;;26.50;54.30;;;;;;5012070;28;20506;-69
2022/03/29 09:53:52;;;;;;;4.30;3.27;;;26.70;52.40;;;;;;5013598;28;20446;-69
2022/03/29 09:56:28;;;;;;;8.37;6.13;;;26.80;51.20;;;;;;5015896;28;20931;-70
2022/03/29 09:59:14;;;;;;;2.80;2.20;;;27.00;51.20;;;;;;5016516;28;20447;-69
2022/03/29 10:01:56;;;;;;;3.90;2.50;;;27.20;50.20;;;;;;5016173;28;20426;-69
2022/03/29 10:04:23;;;;;;;5.10;3.10;;;27.30;49.00;;;;;;5015982;28;20478;-69
2022/03/29 10:06:54;;;;;;;3.80;3.30;;;27.50;48.30;;;;;;5015673;28;20457;-68
2022/03/29 10:09:32;;;;;;;5.67;2.40;;;28.10;48.00;;;;;;5015929;28;20399;-69
2022/03/29 10:12:09;;;;;;;4.63;3.20;;;28.90;46.60;;;;;;5015758;28;20413;-69
2022/03/29 10:14:41;;;;;;;4.23;3.87;;;29.70;45.20;;;;;;5015696;28;20423;-69
2022/03/29 10:17:08;;;;;;;6.40;4.10;;;30.20;43.70;;;;;;5014269;28;20946;-69
2022/03/29 10:19:36;;;;;;;4.37;2.70;;;30.60;42.60;;;;;;5015803;28;20862;-70
2022/03/29 10:22:02;;;;;;;4.83;3.07;;;31.20;41.40;;;;;;5015600;28;20928;-69
2022/03/29 10:24:29;;;;;;;3.30;2.90;;;31.80;39.90;;;;;;5015567;28;20446;-70
2022/03/29 10:26:56;;;;;;;5.57;3.43;;;32.50;39.10;;;;;;5015344;28;20947;-69
2022/03/29 10:29:22;;;;;;;3.33;2.87;;;33.30;38.70;;;;;;5015511;28;20410;-70
2022/03/29 10:31:49;;;;;;;5.27;3.33;;;34.10;37.00;;;;;;5015535;28;20439;-70
2022/03/29 10:34:19;;;;;;;3.70;2.50;;;34.80;36.00;;;;;;5015342;28;20403;-70
2022/03/29 10:37:07;;;;;;;4.10;3.57;;;35.40;35.40;;;;;;5015166;28;20546;-70
2022/03/29 10:39:52;;;;;;;5.47;4.30;;;35.70;34.90;;;;;;5015264;28;20991;-69
2022/03/29 10:42:29;;;;;;;4.90;4.13;;;35.90;34.00;;;;;;5015321;28;20399;-70
2022/03/29 10:44:57;;;;;;;5.50;5.00;;;36.00;33.50;;;;;;5015247;28;20423;-70
2022/03/29 10:47:30;;;;;;;4.20;3.80;;;35.80;32.90;;;;;;5014926;28;20399;-70
2022/03/29 10:49:56;;;;;;;4.37;3.40;;;35.80;32.60;;;;;;5015219;28;20745;-70
2022/03/29 10:52:22;;;;;;;4.27;2.90;;;36.00;32.50;;;;;;5015146;28;20426;-71
2022/03/29 10:54:48;;;;;;;4.33;3.87;;;36.30;31.90;;;;;;5014923;28;20447;-70
2022/03/29 10:57:28;;;;;;;3.80;3.43;;;36.30;31.20;;;;;;5014734;28;20187;-70
2022/03/29 11:00:17;;;;;;;4.10;3.63;;;36.20;31.80;;;;;;5014941;28;20442;-70
2022/03/29 11:03:16;;;;;;;4.57;3.40;;;36.60;31.60;;;;;;5014936;28;20399;-70
2022/03/29 11:06:07;;;;;;;4.03;2.93;;;37.30;30.90;;;;;;5014543;28;20514;-70
2022/03/29 11:08:35;;;;;;;5.60;3.40;;;37.70;30.50;;;;;;5013516;28;20774;-70
2022/03/29 11:11:01;;;;;;;3.97;3.60;;;38.10;29.80;;;;;;5014853;28;20399;-70
2022/03/29 11:13:33;;;;;;;3.10;2.70;;;38.60;29.60;;;;;;5014687;28;20829;-70
2022/03/29 11:16:19;;;;;;;4.80;3.90;;;39.00;29.30;;;;;;5014459;28;20415;-71
2022/03/29 11:18:45;;;;;;;3.13;2.87;;;39.50;29.00;;;;;;5014515;28;20463;-70
2022/03/29 11:21:28;;;;;;;3.43;3.13;;;39.90;28.60;;;;;;5014630;28;20976;-70
2022/03/29 11:23:57;;;;;;;4.83;4.13;;;40.00;28.10;;;;;;5014500;28;20402;-70
2022/03/29 11:26:23;;;;;;;4.40;4.00;;;40.30;27.70;;;;;;5014154;28;20978;-70
2022/03/29 11:28:51;;;;;;;4.27;3.70;;;40.80;27.40;;;;;;5014378;28;20908;-70
2022/03/29 11:31:19;;;;;;;5.80;4.07;;;41.10;28.00;;;;;;5014398;28;20395;-71
2022/03/29 11:33:49;;;;;;;7.53;3.80;;;41.10;28.00;;;;;;5014386;28;20441;-70
2022/03/29 11:36:15;;;;;;;3.73;3.40;;;41.10;28.00;;;;;;5014074;28;20472;-70
2022/03/29 11:38:41;;;;;;;3.30;3.10;;;40.90;28.00;;;;;;5014262;28;20925;-70
2022/03/29 11:41:23;;;;;;;3.87;3.57;;;40.50;28.20;;;;;;5014164;28;20487;-70
2022/03/29 11:44:00;;;;;;;3.50;2.90;;;40.10;27.40;;;;;;5014418;28;20649;-70
2022/03/29 11:46:43;;;;;;;6.83;4.93;;;39.40;27.50;;;;;;5013810;28;20800;-70
2022/03/29 11:49:09;;;;;;;3.60;3.30;;;38.60;27.70;;;;;;5014082;28;20522;-69
2022/03/29 11:51:35;;;;;;;3.90;3.60;;;37.90;28.50;;;;;;5014066;28;20770;-70
2022/03/29 11:54:00;;;;;;;3.23;3.00;;;37.30;29.00;;;;;;5013826;28;20204;-70
2022/03/29 11:56:27;;;;;;;5.33;3.70;;;36.70;29.60;;;;;;5013568;28;20562;-70
2022/03/29 11:58:55;;;;;;;5.23;3.70;;;36.10;29.40;;;;;;5012581;28;20708;-70
2022/03/29 12:01:38;;;;;;;6.90;2.30;;;35.60;29.70;;;;;;5013818;28;20765;-69
2022/03/29 12:04:05;;;;;;;3.30;3.00;;;35.20;29.50;;;;;;5013695;28;20418;-69
2022/03/29 12:06:33;;;;;;;3.63;3.20;;;34.90;29.90;;;;;;5013439;28;20415;-70
2022/03/29 12:09:07;;;;;;;6.17;3.90;;;34.50;30.70;;;;;;5013702;28;20449;-69
2022/03/29 12:11:37;;;;;;;4.00;3.40;;;33.90;30.90;;;;;;5012294;28;20426;-70
2022/03/29 12:14:04;;;;;;;4.77;2.87;;;33.50;31.70;;;;;;5013980;28;20748;-70
2022/03/29 12:16:31;;;;;;;5.13;4.73;;;33.10;31.80;;;;;;5012429;28;20403;-69
2022/03/29 12:18:56;;;;;;;2.63;2.40;;;32.60;31.60;;;;;;5013009;28;20956;-70
2022/03/29 12:21:24;;;;;;;3.30;2.20;;;32.10;31.70;;;;;;5013566;28;20411;-69
2022/03/29 12:24:02;;;;;;;2.47;2.27;;;31.50;32.70;;;;;;5013290;28;20199;-69
2022/03/29 12:26:29;;;;;;;3.80;3.17;;;31.00;32.80;;;;;;5012980;28;20453;-70
2022/03/29 12:28:56;;;;;;;2.80;2.50;;;30.40;33.30;;;;;;5013284;28;20415;-69
2022/03/29 12:31:24;;;;;;;4.40;2.97;;;30.00;34.20;;;;;;5013355;28;20446;-69
2022/03/29 12:33:51;;;;;;;8.80;5.73;;;29.60;35.20;;;;;;5013231;28;20403;-69
2022/03/29 12:36:17;;;;;;;9.77;4.57;;;29.40;37.40;;;;;;5012723;28;20422;-70
2022/03/29 12:38:51;;;;;;;7.27;6.57;;;29.20;38.80;;;;;;5013090;28;20447;-69
2022/03/29 12:41:37;;;;;;;5.90;4.63;;;29.20;39.00;;;;;;5013203;28;20515;-69
2022/03/29 12:44:05;;;;;;;9.67;6.77;;;29.10;39.10;;;;;;5013033;28;20403;-69
2022/03/29 12:46:30;;;;;;;9.50;5.07;;;29.00;39.70;;;;;;5012659;28;20502;-69
2022/03/29 12:48:56;;;;;;;11.30;6.67;;;28.80;40.00;;;;;;5012982;28;20499;-69
2022/03/29 12:51:29;;;;;;;12.53;6.70;;;28.70;40.40;;;;;;5013003;28;20222;-69
2022/03/29 12:54:00;;;;;;;8.17;4.33;;;28.60;40.70;;;;;;5012763;28;20427;-69